Consulta los datos en tiempo real de la estación municipal de Susqueda - St. Martí Sacalm
| Hora UTC | 17:35 |
|---|---|
| Temperatura | 14.0 ºC |
| Humedad | 65.9 % |
| Presión | 1019.4 hPa |
| Pluja | 0.0 mm |
| Velocidad viento | 7.2 km/h |
| Dirección viento | SSW |
| Radiación solar | 102.4 W/m² |
| Temperatura (ºC) | Humedad (%) | Presión (hPa) | Velocidad viento (km/h) | Precipitación (mm) | Radiación solar (W/m²) | |||||||||||||
|---|---|---|---|---|---|---|---|---|---|---|---|---|---|---|---|---|---|---|
| Hora UTC | Aire | Humedad | Presión | Vel. | Dir. | Vel. Max | Dir. | Intent. máx 5 min. | Rad. Sol. | |||||||||
| 00:05 | 11.2 | 78.0 | 1024.0 | 14.0 | SSW | 14.0 | SW | 0.0 | 0.2 | |||||||||
| 00:10 | 11.3 | 77.8 | 1024.0 | 13.0 | SW | 16.6 | SW | 0.0 | 0.1 | |||||||||
| 00:15 | 11.2 | 78.5 | 1024.0 | 10.7 | SW | 13.4 | SW | 0.0 | 0.1 | |||||||||
| 00:20 | 11.0 | 78.8 | 1024.0 | 11.0 | SW | 13.4 | SSW | 0.0 | 0.1 | |||||||||
| 00:25 | 10.8 | 80.2 | 1023.9 | 10.9 | SW | 14.5 | SSW | 0.0 | 0.1 | |||||||||
| 00:30 | 10.6 | 80.8 | 1023.9 | 10.2 | SSW | 15.2 | SSW | 0.0 | 0.1 | |||||||||
| 00:35 | 10.6 | 81.4 | 1023.8 | 9.7 | SSW | 14.5 | SSW | 0.0 | 0.2 | |||||||||
| 00:40 | 10.7 | 81.2 | 1023.7 | 11.1 | SSW | 14.8 | SW | 0.0 | 0.1 | |||||||||
| 00:45 | 11.0 | 81.1 | 1023.7 | 9.1 | SW | 12.0 | WSW | 0.0 | 0.1 | |||||||||
| 00:50 | 11.1 | 80.4 | 1023.6 | 12.2 | SSW | 17.0 | SSW | 0.0 | 0.2 | |||||||||
| 00:55 | 11.2 | 80.3 | 1023.7 | 9.7 | SW | 15.5 | SW | 0.0 | 0.1 | |||||||||
| 01:00 | 11.1 | 79.4 | 1023.6 | 10.5 | SW | 15.5 | SW | 0.0 | 0.1 | |||||||||
| 01:05 | 11.1 | 78.5 | 1023.6 | 8.6 | SSW | 11.7 | SSW | 0.0 | 0.2 | |||||||||
| 01:10 | 11.0 | 77.5 | 1023.6 | 9.6 | SSW | 13.4 | SW | 0.0 | 0.2 | |||||||||
| 01:15 | 11.0 | 78.1 | 1023.6 | 10.4 | SSW | 14.8 | SSW | 0.0 | 0.1 | |||||||||
| 01:20 | 11.0 | 77.7 | 1023.6 | 10.8 | SW | 15.2 | SW | 0.0 | 0.1 | |||||||||
| 01:25 | 11.0 | 77.4 | 1023.5 | 9.7 | SSW | 12.4 | SW | 0.0 | 0.2 | |||||||||
| 01:30 | 11.0 | 76.8 | 1023.5 | 11.1 | SW | 14.1 | SW | 0.0 | 0.1 | |||||||||
| 01:35 | 11.1 | 78.3 | 1023.4 | 10.9 | SW | 14.5 | SW | 0.0 | 0.2 | |||||||||
| 01:40 | 11.0 | 79.7 | 1023.4 | 8.3 | SSW | 11.3 | SW | 0.0 | 0.1 | |||||||||
| 01:45 | 11.0 | 79.4 | 1023.4 | 7.7 | SSW | 10.3 | SSW | 0.0 | 0.2 | |||||||||
| 01:50 | 11.0 | 80.4 | 1023.3 | 5.9 | SW | 8.8 | SW | 0.0 | 0.1 | |||||||||
| 01:55 | 11.1 | 80.5 | 1023.3 | 5.3 | SSW | 8.1 | SW | 0.0 | 0.2 | |||||||||
| 02:00 | 11.1 | 80.4 | 1023.3 | 4.1 | SSW | 9.5 | SSW | 0.0 | 0.2 | |||||||||
| 02:05 | 11.1 | 80.3 | 1023.2 | 3.4 | SW | 6.4 | SSW | 0.0 | 0.1 | |||||||||
| 02:10 | 11.1 | 80.5 | 1023.2 | 2.7 | SW | 6.0 | SW | 0.0 | 0.2 | |||||||||
| 02:15 | 11.2 | 80.6 | 1023.2 | 1.8 | SW | 5.0 | SW | 0.0 | 0.2 | |||||||||
| 02:20 | 11.2 | 80.6 | 1023.1 | 0.1 | SW | 3.5 | SW | 0.0 | 0.2 | |||||||||
| 02:25 | 11.2 | 80.9 | 1023.1 | 0.0 | NNE | 0.0 | SSE | 0.0 | 0.1 | |||||||||
| 02:30 | 11.3 | 80.9 | 1023.1 | 0.5 | SW | 4.6 | SW | 0.0 | 0.1 | |||||||||
| 02:35 | 11.5 | 79.6 | 1023.1 | 2.9 | SSW | 6.4 | S | 0.0 | 0.2 | |||||||||
| 02:40 | 11.5 | 80.5 | 1023.1 | 1.1 | SSW | 6.7 | S | 0.0 | 0.2 | |||||||||
| 02:45 | 11.5 | 80.5 | 1023.1 | 2.5 | SSW | 7.1 | SW | 0.0 | 0.2 | |||||||||
| 02:50 | 11.5 | 80.2 | 1023.2 | 5.3 | SW | 7.1 | SSW | 0.0 | 0.1 | |||||||||
| 02:55 | 11.3 | 79.4 | 1023.2 | 4.3 | SW | 6.4 | SW | 0.0 | 0.2 | |||||||||
| 03:00 | 11.3 | 80.4 | 1023.2 | 0.4 | SW | 4.6 | SW | 0.0 | 0.2 | |||||||||
| 03:05 | 11.2 | 80.0 | 1023.2 | 4.2 | SW | 7.8 | SW | 0.0 | 0.2 | |||||||||
| 03:10 | 11.2 | 79.8 | 1023.1 | 7.0 | SW | 8.1 | WSW | 0.0 | 0.1 | |||||||||
| 03:15 | 11.2 | 80.6 | 1023.1 | 6.5 | SW | 8.1 | SW | 0.0 | 0.1 | |||||||||
| 03:20 | 11.1 | 80.6 | 1023.1 | 4.4 | SSW | 6.0 | SW | 0.0 | 0.1 | |||||||||
| 03:25 | 11.1 | 81.0 | 1023.0 | 4.7 | SW | 6.4 | SW | 0.0 | 0.1 | |||||||||
| 03:30 | 11.1 | 80.9 | 1023.0 | 4.1 | SSW | 6.0 | SSW | 0.0 | 0.1 | |||||||||
| 03:35 | 11.1 | 80.0 | 1023.0 | 3.8 | SW | 6.4 | WSW | 0.0 | 0.2 | |||||||||
| 03:40 | 11.2 | 79.8 | 1022.9 | 4.2 | SW | 7.4 | WSW | 0.0 | 0.1 | |||||||||
| 03:45 | 11.3 | 79.9 | 1022.9 | 3.9 | SW | 5.7 | WSW | 0.0 | 0.1 | |||||||||
| 03:50 | 11.3 | 80.2 | 1022.9 | 3.5 | SW | 5.3 | SW | 0.0 | 0.2 | |||||||||
| 03:55 | 11.3 | 80.3 | 1022.9 | 3.1 | SW | 5.3 | SW | 0.0 | 0.2 | |||||||||
| 04:00 | 11.3 | 80.2 | 1022.9 | 0.7 | SSW | 5.3 | SSW | 0.0 | 0.1 | |||||||||
| 04:05 | 11.3 | 80.5 | 1022.9 | 1.2 | SSW | 5.0 | SSW | 0.0 | 0.1 | |||||||||
| 04:10 | 11.2 | 81.5 | 1022.9 | 2.2 | SSW | 5.0 | SSW | 0.0 | 0.1 | |||||||||
| 04:15 | 11.2 | 82.0 | 1022.9 | 4.1 | SSW | 6.4 | SSW | 0.0 | 0.2 | |||||||||
| 04:20 | 11.1 | 80.8 | 1022.9 | 3.9 | SSW | 5.3 | SW | 0.0 | 0.2 | |||||||||
| 04:25 | 11.2 | 81.4 | 1022.9 | 4.6 | SSW | 6.7 | SSW | 0.0 | 0.2 | |||||||||
| 04:30 | 11.1 | 82.3 | 1022.8 | 5.8 | SW | 7.1 | SW | 0.0 | 0.4 | |||||||||
| 04:35 | 11.1 | 81.4 | 1022.8 | 7.4 | SW | 9.2 | SW | 0.0 | 0.4 | |||||||||
| 04:40 | 11.1 | 81.0 | 1022.8 | 7.6 | SW | 9.2 | SW | 0.0 | 1.1 | |||||||||
| 04:45 | 11.1 | 81.2 | 1022.8 | 8.0 | SW | 9.5 | SW | 0.0 | 1.9 | |||||||||
| 04:50 | 11.0 | 81.1 | 1022.8 | 7.7 | SSW | 9.5 | SW | 0.0 | 2.8 | |||||||||
| 04:55 | 11.1 | 82.3 | 1022.8 | 7.5 | SW | 9.2 | SW | 0.0 | 4.0 | |||||||||
| 05:00 | 11.0 | 82.8 | 1022.9 | 8.3 | SW | 11.0 | SW | 0.0 | 6.1 | |||||||||
| 05:05 | 11.0 | 83.3 | 1022.9 | 9.9 | SW | 12.4 | SW | 0.0 | 10.4 | |||||||||
| 05:10 | 11.1 | 85.8 | 1022.9 | 10.5 | WSW | 13.4 | WSW | 0.0 | 13.2 | |||||||||
| 05:15 | 11.3 | 88.5 | 1022.9 | 8.1 | SW | 11.0 | WSW | 0.0 | 18.4 | |||||||||
| 05:20 | 11.4 | 88.9 | 1022.8 | 6.5 | SW | 8.8 | SW | 0.0 | 25.4 | |||||||||
| 05:25 | 11.5 | 89.2 | 1022.9 | 6.9 | SW | 9.9 | SW | 0.0 | 33.9 | |||||||||
| 05:30 | 11.5 | 88.7 | 1022.9 | 7.3 | SW | 11.0 | SSW | 0.0 | 33.6 | |||||||||
| 05:35 | 11.5 | 89.1 | 1022.9 | 7.5 | SSW | 10.3 | SSW | 0.0 | 45.7 | |||||||||
| 05:40 | 11.4 | 89.2 | 1022.9 | 3.3 | SSW | 7.1 | SW | 0.0 | 47.3 | |||||||||
| 05:45 | 11.6 | 90.1 | 1022.9 | 0.0 | SSW | 1.4 | SSW | 0.0 | 43.5 | |||||||||
| 05:50 | 11.7 | 90.6 | 1023.0 | 0.1 | S | 3.5 | S | 0.0 | 55.0 | |||||||||
| 05:55 | 11.7 | 90.5 | 1023.0 | 0.8 | SSW | 3.9 | SSW | 0.0 | 96.6 | |||||||||
| 06:00 | 11.8 | 90.7 | 1023.0 | 0.9 | SSW | 5.3 | SSW | 0.0 | 146.0 | |||||||||
| 06:05 | 11.9 | 90.1 | 1023.0 | 2.5 | SW | 5.3 | SW | 0.0 | 166.8 | |||||||||
| 06:10 | 12.1 | 89.6 | 1023.1 | 0.0 | NNE | 0.0 | WSW | 0.0 | 179.2 | |||||||||
| 06:15 | 12.4 | 89.4 | 1023.2 | 2.5 | SSW | 7.1 | SSW | 0.0 | 175.7 | |||||||||
| 06:20 | 12.4 | 88.2 | 1023.2 | 7.3 | SW | 11.3 | SW | 0.0 | 140.0 | |||||||||
| 06:25 | 12.0 | 88.0 | 1023.2 | 8.5 | SW | 10.6 | SW | 0.0 | 108.5 | |||||||||
| 06:30 | 11.8 | 88.1 | 1023.2 | 8.5 | SW | 11.0 | SW | 0.0 | 79.0 | |||||||||
| 06:35 | 11.7 | 88.6 | 1023.2 | 8.3 | SW | 10.3 | SSW | 0.0 | 70.9 | |||||||||
| 06:40 | 11.7 | 88.8 | 1023.2 | 6.4 | SSW | 9.2 | SW | 0.0 | 71.5 | |||||||||
| 06:45 | 11.8 | 88.8 | 1023.3 | 5.8 | SSW | 11.3 | S | 0.0 | 71.0 | |||||||||
| 06:50 | 12.0 | 88.9 | 1023.2 | 4.4 | SSW | 7.8 | SSW | 0.0 | 85.0 | |||||||||
| 06:55 | 12.0 | 87.6 | 1023.2 | 3.8 | SSW | 7.4 | SSW | 0.0 | 96.0 | |||||||||
| 07:00 | 11.9 | 87.5 | 1023.2 | 3.6 | SSW | 7.8 | SSW | 0.0 | 83.6 | |||||||||
| 07:05 | 12.0 | 87.3 | 1023.2 | 0.7 | SSW | 5.7 | SSW | 0.0 | 101.0 | |||||||||
| 07:10 | 12.1 | 84.7 | 1023.1 | 2.1 | SSW | 7.8 | SSW | 0.0 | 94.9 | |||||||||
| 07:15 | 12.2 | 83.9 | 1023.2 | 2.3 | SSW | 9.5 | SW | 0.0 | 73.7 | |||||||||
| 07:20 | 12.0 | 85.1 | 1023.2 | 9.1 | SW | 12.4 | SW | 0.0 | 54.5 | |||||||||
| 07:25 | 11.6 | 87.2 | 1023.2 | 9.5 | SW | 11.7 | SW | 0.0 | 62.0 | |||||||||
| 07:30 | 11.3 | 88.3 | 1023.2 | 8.1 | SW | 11.7 | SW | 0.0 | 71.8 | |||||||||
| 07:35 | 11.5 | 88.5 | 1023.2 | 7.9 | SW | 11.0 | SW | 0.0 | 96.8 | |||||||||
| 07:40 | 11.6 | 87.1 | 1023.2 | 9.9 | SW | 14.8 | SW | 0.0 | 101.6 | |||||||||
| 07:45 | 11.7 | 86.6 | 1023.2 | 9.4 | SW | 13.4 | SW | 0.0 | 105.7 | |||||||||
| 07:50 | 11.9 | 86.0 | 1023.2 | 9.5 | SW | 13.8 | SW | 0.0 | 135.5 | |||||||||
| 07:55 | 11.9 | 85.6 | 1023.2 | 9.7 | SW | 12.0 | SSW | 0.0 | 250.5 | |||||||||
| 08:00 | 12.1 | 84.2 | 1023.2 | 11.4 | SW | 14.8 | SW | 0.0 | 333.2 | |||||||||
| 08:05 | 12.5 | 83.5 | 1023.2 | 10.8 | SW | 14.8 | WSW | 0.0 | 289.9 | |||||||||
| 08:10 | 12.6 | 82.9 | 1023.2 | 11.1 | SW | 14.1 | SW | 0.0 | 257.0 | |||||||||
| 08:15 | 12.6 | 82.5 | 1023.3 | 11.2 | SW | 15.9 | SW | 0.0 | 182.3 | |||||||||
| 08:20 | 12.5 | 82.3 | 1023.3 | 8.8 | SSW | 14.1 | SW | 0.0 | 157.8 | |||||||||
| 08:25 | 12.5 | 81.6 | 1023.2 | 8.2 | SSW | 14.1 | SW | 0.0 | 170.0 | |||||||||
| 08:30 | 12.5 | 82.4 | 1023.3 | 10.1 | SSW | 14.5 | SSW | 0.0 | 188.8 | |||||||||
| 08:35 | 12.6 | 81.7 | 1023.3 | 10.1 | SW | 14.8 | SW | 0.0 | 231.1 | |||||||||
| 08:40 | 12.5 | 79.5 | 1023.3 | 10.2 | SW | 14.1 | SW | 0.0 | 211.9 | |||||||||
| 08:45 | 12.6 | 77.1 | 1023.3 | 10.6 | SW | 17.0 | SW | 0.0 | 160.6 | |||||||||
| 08:50 | 12.5 | 77.5 | 1023.3 | 10.1 | SW | 15.9 | WSW | 0.0 | 129.9 | |||||||||
| 08:55 | 12.5 | 74.9 | 1023.3 | 13.6 | SW | 19.4 | SSW | 0.0 | 117.0 | |||||||||
| 09:00 | 12.4 | 76.5 | 1023.3 | 11.8 | SW | 16.6 | SW | 0.0 | 95.4 | |||||||||
| 09:05 | 12.2 | 81.4 | 1023.3 | 9.8 | SSW | 13.8 | SW | 0.0 | 91.9 | |||||||||
| 09:10 | 12.1 | 84.7 | 1023.3 | 10.1 | SSW | 15.2 | SW | 0.0 | 103.7 | |||||||||
| 09:15 | 12.1 | 82.1 | 1023.3 | 12.0 | SW | 16.2 | SW | 0.0 | 85.4 | |||||||||
| 09:20 | 12.0 | 83.0 | 1023.3 | 10.8 | SW | 14.8 | SW | 0.0 | 77.0 | |||||||||
| 09:25 | 12.0 | 85.3 | 1023.3 | 8.7 | SW | 14.5 | SW | 0.0 | 84.9 | |||||||||
| 09:30 | 12.1 | 86.0 | 1023.3 | 6.9 | SW | 11.0 | SW | 0.0 | 89.7 | |||||||||
| 09:35 | 12.1 | 86.4 | 1023.4 | 10.3 | SSW | 14.8 | SSW | 0.0 | 118.1 | |||||||||
| 09:40 | 12.1 | 86.9 | 1023.4 | 12.4 | SW | 17.0 | SW | 0.0 | 153.2 | |||||||||
| 09:45 | 12.2 | 87.0 | 1023.4 | 13.0 | SW | 16.6 | SW | 0.0 | 170.4 | |||||||||
| 09:50 | 12.2 | 87.1 | 1023.4 | 10.5 | SW | 16.2 | SW | 0.0 | 171.5 | |||||||||
| 09:55 | 12.3 | 86.0 | 1023.3 | 11.2 | SW | 15.2 | SW | 0.0 | 328.7 | |||||||||
| 10:00 | 12.5 | 81.5 | 1023.3 | 13.0 | SW | 17.0 | SSW | 0.0 | 327.8 | |||||||||
| 10:05 | 12.7 | 80.1 | 1023.3 | 13.6 | SW | 19.8 | SSW | 0.0 | 298.7 | |||||||||
| 10:10 | 12.8 | 77.0 | 1023.3 | 11.4 | SW | 15.5 | SW | 0.0 | 336.9 | |||||||||
| 10:15 | 12.9 | 77.4 | 1023.2 | 8.8 | SW | 13.8 | WSW | 0.0 | 359.5 | |||||||||
| 10:20 | 13.1 | 74.4 | 1023.1 | 10.9 | SW | 15.2 | SW | 0.0 | 382.6 | |||||||||
| 10:25 | 13.3 | 72.8 | 1023.1 | 10.4 | SW | 15.5 | SSW | 0.0 | 392.4 | |||||||||
| 10:30 | 13.4 | 74.0 | 1023.0 | 10.3 | SW | 17.3 | WSW | 0.0 | 374.8 | |||||||||
| 10:35 | 13.5 | 70.7 | 1023.0 | 11.3 | SW | 18.0 | WSW | 0.0 | 339.7 | |||||||||
| 10:40 | 13.5 | 70.1 | 1023.1 | 12.4 | SW | 20.8 | SW | 0.0 | 343.2 | |||||||||
| 10:45 | 13.4 | 69.1 | 1023.1 | 12.6 | SW | 20.5 | SSW | 0.0 | 304.4 | |||||||||
| 10:50 | 13.3 | 70.2 | 1023.1 | 11.0 | SSW | 18.0 | SW | 0.0 | 304.1 | |||||||||
| 10:55 | 13.4 | 71.3 | 1023.0 | 12.6 | SW | 17.7 | SW | 0.0 | 365.3 | |||||||||
| 11:00 | 13.5 | 70.9 | 1023.0 | 11.3 | SW | 15.5 | SW | 0.0 | 398.1 | |||||||||
| 11:05 | 13.6 | 68.9 | 1022.9 | 12.2 | SW | 19.8 | SW | 0.0 | 363.1 | |||||||||
| 11:10 | 13.5 | 70.6 | 1022.9 | 12.6 | SW | 19.1 | SW | 0.0 | 284.4 | |||||||||
| 11:15 | 13.5 | 67.5 | 1022.8 | 10.7 | WSW | 19.1 | WSW | 0.0 | 277.2 | |||||||||
| 11:20 | 13.6 | 70.2 | 1022.8 | 12.1 | SW | 18.7 | SW | 0.0 | 336.8 | |||||||||
| 11:25 | 13.7 | 68.2 | 1022.7 | 11.9 | SW | 19.8 | WSW | 0.0 | 398.2 | |||||||||
| 11:30 | 13.8 | 68.6 | 1022.6 | 9.8 | SW | 17.3 | SSW | 0.0 | 442.1 | |||||||||
| 11:35 | 14.1 | 68.4 | 1022.5 | 10.8 | SW | 18.7 | WSW | 0.0 | 512.1 | |||||||||
| 11:40 | 14.3 | 67.2 | 1022.5 | 9.0 | SW | 14.8 | SW | 0.0 | 523.6 | |||||||||
| 11:45 | 14.4 | 65.8 | 1022.4 | 13.2 | SW | 20.1 | SW | 0.0 | 518.6 | |||||||||
| 11:50 | 14.5 | 66.1 | 1022.4 | 8.7 | SSW | 14.8 | SSW | 0.0 | 489.7 | |||||||||
| 11:55 | 14.4 | 64.5 | 1022.4 | 9.0 | SW | 14.8 | SSW | 0.0 | 449.5 | |||||||||
| 12:00 | 14.6 | 65.4 | 1022.4 | 5.7 | SSW | 12.0 | SSW | 0.0 | 460.6 | |||||||||
| 12:05 | 14.7 | 64.2 | 1022.4 | 8.1 | SSE | 13.8 | SW | 0.0 | 477.7 | |||||||||
| 12:10 | 15.0 | 66.0 | 1022.4 | 4.0 | SW | 13.4 | SSW | 0.0 | 603.0 | |||||||||
| 12:15 | 15.6 | 64.8 | 1022.3 | 4.7 | SSW | 13.1 | WSW | 0.0 | 703.7 | |||||||||
| 12:20 | 15.6 | 64.0 | 1022.3 | 6.6 | S | 15.2 | SSE | 0.0 | 548.6 | |||||||||
| 12:25 | 15.8 | 63.1 | 1022.2 | 5.1 | S | 15.2 | S | 0.0 | 649.3 | |||||||||
| 12:30 | 15.9 | 63.1 | 1022.2 | 4.3 | S | 15.9 | S | 0.0 | 594.3 | |||||||||
| 12:35 | 15.7 | 63.7 | 1022.2 | 6.7 | S | 17.7 | S | 0.0 | 541.6 | |||||||||
| 12:40 | 15.8 | 63.6 | 1022.1 | 9.4 | SW | 17.0 | SSW | 0.0 | 786.1 | |||||||||
| 12:45 | 15.9 | 63.5 | 1022.1 | 10.8 | SSW | 18.0 | SSW | 0.0 | 534.9 | |||||||||
| 12:50 | 15.9 | 63.4 | 1022.1 | 6.9 | SSE | 14.8 | SSE | 0.0 | 301.7 | |||||||||
| 12:55 | 16.0 | 63.2 | 1022.0 | 10.3 | SSE | 15.9 | SE | 0.0 | 832.0 | |||||||||
| 13:00 | 16.3 | 62.3 | 1022.0 | 12.1 | SSE | 17.0 | SE | 0.0 | 500.0 | |||||||||
| 13:05 | 16.2 | 63.6 | 1022.0 | 10.6 | SSE | 18.0 | SSE | 0.0 | 495.0 | |||||||||
| 13:10 | 15.9 | 65.4 | 1022.0 | 8.3 | SSE | 17.0 | SSE | 0.0 | 428.2 | |||||||||
| 13:15 | 16.1 | 64.7 | 1022.0 | 7.5 | S | 12.7 | S | 0.0 | 485.2 | |||||||||
| 13:20 | 16.0 | 65.4 | 1022.0 | 9.3 | S | 15.9 | S | 0.0 | 855.0 | |||||||||
| 13:25 | 16.5 | 64.0 | 1021.9 | 7.3 | S | 16.2 | S | 0.0 | 1034.0 | |||||||||
| 13:30 | 17.1 | 59.3 | 1021.9 | 8.2 | S | 14.8 | S | 0.0 | 943.0 | |||||||||
| 13:35 | 17.1 | 61.2 | 1021.8 | 8.3 | S | 15.9 | S | 0.0 | 627.5 | |||||||||
| 13:40 | 16.9 | 61.2 | 1021.8 | 7.6 | S | 13.8 | S | 0.0 | 466.7 | |||||||||
| 13:45 | 16.8 | 62.6 | 1021.8 | 6.8 | SSW | 15.2 | SW | 0.0 | 514.1 | |||||||||
| 13:50 | 16.7 | 61.1 | 1021.7 | 7.6 | S | 13.1 | SSE | 0.0 | 471.4 | |||||||||
| 13:55 | 16.7 | 62.0 | 1021.6 | 7.7 | S | 13.8 | SSE | 0.0 | 410.9 | |||||||||
| 14:00 | 16.4 | 63.6 | 1021.5 | 8.8 | S | 15.2 | SSE | 0.0 | 392.5 | |||||||||
| 14:05 | 16.1 | 64.9 | 1021.4 | 5.7 | S | 12.0 | S | 0.0 | 335.5 | |||||||||
| 14:10 | 16.0 | 64.5 | 1021.4 | 6.9 | SSE | 14.1 | SE | 0.0 | 281.2 | |||||||||
| 14:15 | 16.0 | 61.3 | 1021.3 | 7.1 | S | 13.1 | SSW | 0.0 | 330.5 | |||||||||
| 14:20 | 16.0 | 65.8 | 1021.3 | 10.0 | S | 15.9 | SSE | 0.0 | 347.9 | |||||||||
| 14:25 | 15.9 | 68.0 | 1021.2 | 11.5 | SSE | 18.7 | SSE | 0.0 | 281.2 | |||||||||
| 14:30 | 15.6 | 68.5 | 1021.1 | 10.3 | SSE | 18.0 | SSE | 0.0 | 213.3 | |||||||||
| 14:35 | 15.6 | 66.7 | 1021.1 | 9.2 | S | 21.5 | SSW | 0.0 | 196.3 | |||||||||
| 14:40 | 15.6 | 63.4 | 1021.0 | 8.3 | S | 17.7 | SSE | 0.0 | 336.4 | |||||||||
| 14:45 | 15.9 | 63.8 | 1020.9 | 5.7 | SSE | 15.5 | SE | 0.0 | 358.9 | |||||||||
| 14:50 | 15.9 | 64.8 | 1020.9 | 9.8 | S | 19.8 | SSE | 0.0 | 346.2 | |||||||||
| 14:55 | 15.6 | 68.4 | 1020.8 | 12.6 | SSE | 22.6 | SSE | 0.0 | 311.5 | |||||||||
| 15:00 | 15.3 | 70.4 | 1020.8 | 12.6 | SSE | 19.1 | SSE | 0.0 | 243.3 | |||||||||
| 15:05 | 15.1 | 70.9 | 1020.8 | 14.2 | SSE | 23.7 | SSE | 0.0 | 240.2 | |||||||||
| 15:10 | 15.1 | 72.0 | 1020.8 | 10.6 | SSE | 17.7 | SSE | 0.0 | 187.6 | |||||||||
| 15:15 | 15.1 | 71.9 | 1020.8 | 11.2 | SSE | 19.8 | SSE | 0.0 | 145.9 | |||||||||
| 15:20 | 15.0 | 71.4 | 1020.8 | 10.0 | S | 16.6 | SSW | 0.0 | 150.9 | |||||||||
| 15:25 | 15.1 | 72.4 | 1020.8 | 8.7 | S | 15.5 | SSE | 0.0 | 243.8 | |||||||||
| 15:30 | 15.3 | 70.0 | 1020.6 | 9.3 | S | 17.3 | SSE | 0.0 | 346.9 | |||||||||
| 15:35 | 15.7 | 68.6 | 1020.5 | 9.0 | SSW | 16.6 | SSW | 0.0 | 467.3 | |||||||||
| 15:40 | 15.8 | 65.9 | 1020.5 | 11.5 | S | 22.6 | S | 0.0 | 482.4 | |||||||||
| 15:45 | 15.9 | 65.9 | 1020.5 | 10.7 | S | 19.4 | SE | 0.0 | 489.0 | |||||||||
| 15:50 | 16.0 | 63.6 | 1020.4 | 10.9 | S | 20.5 | S | 0.0 | 510.4 | |||||||||
| 15:55 | 16.0 | 62.0 | 1020.3 | 10.5 | S | 19.8 | SSE | 0.0 | 417.4 | |||||||||
| 16:00 | 15.9 | 61.9 | 1020.4 | 10.4 | S | 20.1 | SSE | 0.0 | 388.8 | |||||||||
| 16:05 | 15.8 | 61.2 | 1020.3 | 11.3 | S | 21.9 | S | 0.0 | 445.3 | |||||||||
| 16:10 | 15.8 | 58.8 | 1020.3 | 11.7 | S | 23.0 | SE | 0.0 | 355.8 | |||||||||
| 16:15 | 15.7 | 57.0 | 1020.2 | 11.1 | S | 23.3 | SE | 0.0 | 348.4 | |||||||||
| 16:20 | 15.4 | 58.8 | 1020.2 | 11.1 | S | 19.1 | SSW | 0.0 | 272.0 | |||||||||
| 16:25 | 15.2 | 60.2 | 1020.3 | 10.3 | SSW | 18.4 | S | 0.0 | 195.7 | |||||||||
| 16:30 | 15.0 | 62.2 | 1020.3 | 9.8 | S | 17.0 | SSW | 0.0 | 189.2 | |||||||||
| 16:35 | 15.0 | 62.3 | 1020.3 | 9.8 | SSW | 21.5 | SSW | 0.0 | 193.5 | |||||||||
| 16:40 | 15.0 | 60.1 | 1020.3 | 8.4 | S | 14.8 | S | 0.0 | 180.8 | |||||||||
| 16:45 | 15.0 | 59.6 | 1020.2 | 8.8 | S | 18.4 | S | 0.0 | 161.1 | |||||||||
| 16:50 | 14.9 | 60.5 | 1020.3 | 8.0 | S | 15.2 | SSE | 0.0 | 142.2 | |||||||||
| 16:55 | 14.7 | 62.7 | 1020.3 | 7.7 | SSW | 12.7 | SSW | 0.0 | 103.5 | |||||||||
| 17:00 | 14.5 | 61.9 | 1020.2 | 8.3 | SSW | 14.1 | SSW | 0.0 | 75.1 | |||||||||
| 17:05 | 14.4 | 65.0 | 1020.2 | 7.4 | S | 14.1 | S | 0.0 | 65.6 | |||||||||
| 17:10 | 14.2 | 65.9 | 1020.0 | 8.1 | S | 14.8 | S | 0.0 | 79.8 | |||||||||
| 17:15 | 14.2 | 65.0 | 1019.8 | 8.1 | S | 14.8 | SSE | 0.0 | 100.2 | |||||||||
| 17:20 | 14.2 | 63.9 | 1019.7 | 7.7 | S | 12.7 | S | 0.0 | 108.9 | |||||||||
| 17:25 | 14.1 | 64.3 | 1019.5 | 6.8 | S | 14.1 | S | 0.0 | 111.8 | |||||||||
| 17:30 | 14.0 | 64.5 | 1019.5 | 9.9 | S | 18.0 | SSE | 0.0 | 111.6 | |||||||||
| 17:35 | 14.0 | 65.9 | 1019.4 | 7.2 | SSW | 15.5 | SSW | 0.0 | 102.4 | |||||||||
| Máxima | 17.1 | 90.7 | 1024.0 | 14.2 | SSE | 23.7 | SSE | 0.0 | 1034.0 | |||||||||
| Mínima | 10.6 | 57.0 | 1019.4 | |||||||||||||||
| Total | 0.0 | |||||||||||||||||